sensor_id;sensor_type;location;lat;lon;timestamp;pressure;altitude;pressure_sealevel;temperature;humidity
55990;BME280;41875;55.806;38.082;2023-06-14T00:00:43;99766.41;;;15.41;44.46
55990;BME280;41875;55.806;38.082;2023-06-14T00:03:13;99758.59;;;15.39;44.41
55990;BME280;41875;55.806;38.082;2023-06-14T00:05:45;99763.72;;;15.41;44.44
55990;BME280;41875;55.806;38.082;2023-06-14T00:08:14;99764.56;;;15.42;44.67
55990;BME280;41875;55.806;38.082;2023-06-14T00:10:42;99759.03;;;15.28;44.76
55990;BME280;41875;55.806;38.082;2023-06-14T00:13:11;99760.75;;;15.06;45.47
55990;BME280;41875;55.806;38.082;2023-06-14T00:15:41;99761.91;;;15.42;43.69
55990;BME280;41875;55.806;38.082;2023-06-14T00:18:09;99757.34;;;14.82;46.09
55990;BME280;41875;55.806;38.082;2023-06-14T00:20:39;99754.75;;;14.74;46.39
55990;BME280;41875;55.806;38.082;2023-06-14T00:23:09;99757.78;;;14.62;46.88
55990;BME280;41875;55.806;38.082;2023-06-14T00:25:37;99763.38;;;14.29;47.73
55990;BME280;41875;55.806;38.082;2023-06-14T00:28:06;99763.84;;;14.10;48.25
55990;BME280;41875;55.806;38.082;2023-06-14T00:30:35;99762.78;;;14.19;48.21
55990;BME280;41875;55.806;38.082;2023-06-14T00:33:05;99765.34;;;14.82;46.43
55990;BME280;41875;55.806;38.082;2023-06-14T00:35:33;99768.41;;;14.94;45.96
55990;BME280;41875;55.806;38.082;2023-06-14T00:38:03;99757.19;;;15.14;45.53
55990;BME280;41875;55.806;38.082;2023-06-14T00:40:32;99759.38;;;15.70;43.23
55990;BME280;41875;55.806;38.082;2023-06-14T00:43:01;99759.97;;;15.35;44.33
55990;BME280;41875;55.806;38.082;2023-06-14T00:45:30;99755.56;;;15.43;44.35
55990;BME280;41875;55.806;38.082;2023-06-14T00:48:05;99757.66;;;15.32;44.36
55990;BME280;41875;55.806;38.082;2023-06-14T00:50:35;99760.78;;;15.36;44.07
55990;BME280;41875;55.806;38.082;2023-06-14T00:53:05;99756.00;;;15.31;44.10
55990;BME280;41875;55.806;38.082;2023-06-14T00:55:33;99756.66;;;15.33;44.05
55990;BME280;41875;55.806;38.082;2023-06-14T00:58:02;99752.78;;;15.51;43.72
55990;BME280;41875;55.806;38.082;2023-06-14T01:00:31;99759.19;;;16.23;41.00
55990;BME280;41875;55.806;38.082;2023-06-14T01:02:59;99748.34;;;16.10;42.14
55990;BME280;41875;55.806;38.082;2023-06-14T01:05:30;99757.16;;;16.25;41.90
55990;BME280;41875;55.806;38.082;2023-06-14T01:08:13;99753.06;;;16.51;41.28
55990;BME280;41875;55.806;38.082;2023-06-14T01:10:47;99754.84;;;16.66;41.24
55990;BME280;41875;55.806;38.082;2023-06-14T01:13:24;99758.63;;;17.00;40.60
55990;BME280;41875;55.806;38.082;2023-06-14T01:15:55;99749.38;;;17.37;39.76
55990;BME280;41875;55.806;38.082;2023-06-14T01:18:24;99752.00;;;18.15;38.10
55990;BME280;41875;55.806;38.082;2023-06-14T01:20:55;99757.59;;;18.47;37.71
55990;BME280;41875;55.806;38.082;2023-06-14T01:23:28;99756.38;;;18.63;37.09
55990;BME280;41875;55.806;38.082;2023-06-14T01:26:00;99763.00;;;19.07;36.38
55990;BME280;41875;55.806;38.082;2023-06-14T01:28:33;99761.78;;;19.69;35.46
55990;BME280;41875;55.806;38.082;2023-06-14T01:31:04;99763.00;;;19.73;35.17
55990;BME280;41875;55.806;38.082;2023-06-14T01:33:35;99759.47;;;20.50;33.92
55990;BME280;41875;55.806;38.082;2023-06-14T01:36:06;99758.06;;;20.73;33.26
55990;BME280;41875;55.806;38.082;2023-06-14T01:38:38;99754.97;;;21.01;32.99
55990;BME280;41875;55.806;38.082;2023-06-14T01:41:08;99757.53;;;21.70;31.53
55990;BME280;41875;55.806;38.082;2023-06-14T01:43:39;99762.69;;;21.72;31.63
55990;BME280;41875;55.806;38.082;2023-06-14T01:46:09;99768.34;;;22.01;30.99
55990;BME280;41875;55.806;38.082;2023-06-14T01:48:39;99774.06;;;22.23;30.63
55990;BME280;41875;55.806;38.082;2023-06-14T01:51:07;99762.19;;;22.43;30.06
55990;BME280;41875;55.806;38.082;2023-06-14T01:53:37;99762.38;;;22.41;30.20
55990;BME280;41875;55.806;38.082;2023-06-14T01:56:09;99760.91;;;22.57;29.83
55990;BME280;41875;55.806;38.082;2023-06-14T01:58:39;99771.22;;;22.48;29.87
55990;BME280;41875;55.806;38.082;2023-06-14T02:01:07;99763.66;;;22.81;29.44
55990;BME280;41875;55.806;38.082;2023-06-14T02:03:36;99765.16;;;22.77;29.61
55990;BME280;41875;55.806;38.082;2023-06-14T02:06:06;99760.34;;;23.03;29.26
55990;BME280;41875;55.806;38.082;2023-06-14T02:08:34;99762.56;;;23.53;28.35
55990;BME280;41875;55.806;38.082;2023-06-14T02:11:04;99758.69;;;24.02;28.04
55990;BME280;41875;55.806;38.082;2023-06-14T02:13:35;99762.34;;;24.59;27.28
55990;BME280;41875;55.806;38.082;2023-06-14T02:16:05;99760.97;;;25.07;26.35
55990;BME280;41875;55.806;38.082;2023-06-14T02:18:34;99761.31;;;24.77;26.65
55990;BME280;41875;55.806;38.082;2023-06-14T02:21:23;99760.94;;;25.69;25.69
55990;BME280;41875;55.806;38.082;2023-06-14T02:23:51;99762.00;;;25.90;25.08
55990;BME280;41875;55.806;38.082;2023-06-14T02:26:22;99762.91;;;25.74;25.37
55990;BME280;41875;55.806;38.082;2023-06-14T02:28:50;99758.25;;;26.19;25.23
55990;BME280;41875;55.806;38.082;2023-06-14T02:31:19;99760.75;;;26.58;24.79
55990;BME280;41875;55.806;38.082;2023-06-14T02:33:48;99767.06;;;26.31;24.94
55990;BME280;41875;55.806;38.082;2023-06-14T02:36:17;99765.00;;;25.44;26.15
55990;BME280;41875;55.806;38.082;2023-06-14T02:38:46;99768.41;;;26.28;24.99
55990;BME280;41875;55.806;38.082;2023-06-14T02:41:15;99776.69;;;24.59;27.67
55990;BME280;41875;55.806;38.082;2023-06-14T02:43:45;99779.50;;;25.16;27.32
55990;BME280;41875;55.806;38.082;2023-06-14T02:46:13;99775.19;;;26.63;24.90
55990;BME280;41875;55.806;38.082;2023-06-14T02:48:42;99781.06;;;26.50;25.00
55990;BME280;41875;55.806;38.082;2023-06-14T02:51:12;99779.00;;;25.19;26.70
55990;BME280;41875;55.806;38.082;2023-06-14T02:53:40;99784.72;;;24.37;28.13
55990;BME280;41875;55.806;38.082;2023-06-14T02:56:09;99783.00;;;23.49;29.62
55990;BME280;41875;55.806;38.082;2023-06-14T02:58:39;99784.63;;;22.67;30.89
55990;BME280;41875;55.806;38.082;2023-06-14T03:01:09;99781.41;;;23.36;30.37
55990;BME280;41875;55.806;38.082;2023-06-14T03:03:40;99787.31;;;24.15;28.65
55990;BME280;41875;55.806;38.082;2023-06-14T03:06:09;99778.22;;;26.35;25.97
55990;BME280;41875;55.806;38.082;2023-06-14T03:08:43;99781.97;;;24.49;28.46
55990;BME280;41875;55.806;38.082;2023-06-14T03:11:15;99775.50;;;22.80;31.31
55990;BME280;41875;55.806;38.082;2023-06-14T03:13:48;99785.38;;;23.10;30.84
55990;BME280;41875;55.806;38.082;2023-06-14T03:16:20;99786.97;;;24.11;29.27
55990;BME280;41875;55.806;38.082;2023-06-14T03:18:49;99791.09;;;24.60;28.45
55990;BME280;41875;55.806;38.082;2023-06-14T03:21:18;99799.25;;;24.02;29.75
55990;BME280;41875;55.806;38.082;2023-06-14T03:23:48;99780.94;;;25.23;28.22
55990;BME280;41875;55.806;38.082;2023-06-14T03:26:18;99788.66;;;24.29;29.49
55990;BME280;41875;55.806;38.082;2023-06-14T03:28:51;99792.13;;;24.13;29.57
55990;BME280;41875;55.806;38.082;2023-06-14T03:31:23;99791.88;;;23.85;30.54
55990;BME280;41875;55.806;38.082;2023-06-14T03:33:52;99789.25;;;24.02;30.25
55990;BME280;41875;55.806;38.082;2023-06-14T03:36:22;99786.72;;;24.59;29.56
55990;BME280;41875;55.806;38.082;2023-06-14T03:38:51;99784.63;;;24.78;29.46
55990;BME280;41875;55.806;38.082;2023-06-14T03:41:20;99786.88;;;24.52;30.06
55990;BME280;41875;55.806;38.082;2023-06-14T03:43:50;99782.75;;;24.32;29.37
55990;BME280;41875;55.806;38.082;2023-06-14T03:46:19;99779.25;;;24.32;29.88
55990;BME280;41875;55.806;38.082;2023-06-14T03:48:49;99785.09;;;23.71;30.82
55990;BME280;41875;55.806;38.082;2023-06-14T03:51:19;99773.84;;;23.91;30.60
55990;BME280;41875;55.806;38.082;2023-06-14T03:53:50;99783.19;;;21.91;33.87
55990;BME280;41875;55.806;38.082;2023-06-14T03:56:26;99770.78;;;21.53;34.88
55990;BME280;41875;55.806;38.082;2023-06-14T03:58:55;99787.41;;;20.55;37.11
55990;BME280;41875;55.806;38.082;2023-06-14T04:01:26;99784.56;;;20.12;37.79
55990;BME280;41875;55.806;38.082;2023-06-14T04:04:00;99790.31;;;20.54;37.39
55990;BME280;41875;55.806;38.082;2023-06-14T04:06:29;99785.72;;;19.90;38.71
55990;BME280;41875;55.806;38.082;2023-06-14T04:09:00;99787.50;;;20.10;38.40
55990;BME280;41875;55.806;38.082;2023-06-14T04:11:32;99789.00;;;19.92;38.67
55990;BME280;41875;55.806;38.082;2023-06-14T04:14:01;99784.09;;;20.53;38.29
55990;BME280;41875;55.806;38.082;2023-06-14T04:16:30;99785.03;;;20.02;38.11
55990;BME280;41875;55.806;38.082;2023-06-14T04:19:01;99788.19;;;20.31;36.48
55990;BME280;41875;55.806;38.082;2023-06-14T04:21:33;99782.41;;;20.59;35.84
55990;BME280;41875;55.806;38.082;2023-06-14T04:24:06;99781.50;;;20.65;36.08
55990;BME280;41875;55.806;38.082;2023-06-14T04:26:44;99777.06;;;21.47;34.96
55990;BME280;41875;55.806;38.082;2023-06-14T04:29:16;99770.94;;;21.40;35.17
55990;BME280;41875;55.806;38.082;2023-06-14T04:31:58;99781.06;;;20.75;36.69
55990;BME280;41875;55.806;38.082;2023-06-14T04:34:30;99779.34;;;20.55;37.12
55990;BME280;41875;55.806;38.082;2023-06-14T04:37:04;99777.94;;;20.78;36.88
55990;BME280;41875;55.806;38.082;2023-06-14T04:39:37;99783.34;;;20.71;36.57
55990;BME280;41875;55.806;38.082;2023-06-14T04:42:06;99777.38;;;21.39;35.56
55990;BME280;41875;55.806;38.082;2023-06-14T04:44:35;99787.66;;;21.05;36.13
55990;BME280;41875;55.806;38.082;2023-06-14T04:47:08;99783.63;;;21.14;35.93
55990;BME280;41875;55.806;38.082;2023-06-14T04:49:38;99781.50;;;21.41;35.33
55990;BME280;41875;55.806;38.082;2023-06-14T04:52:08;99786.13;;;21.53;35.03
55990;BME280;41875;55.806;38.082;2023-06-14T04:54:41;99785.53;;;21.88;34.65
55990;BME280;41875;55.806;38.082;2023-06-14T04:57:14;99786.50;;;21.56;35.16
55990;BME280;41875;55.806;38.082;2023-06-14T04:59:48;99784.94;;;21.86;34.22
55990;BME280;41875;55.806;38.082;2023-06-14T05:02:25;99781.88;;;22.13;33.78
55990;BME280;41875;55.806;38.082;2023-06-14T05:04:56;99781.53;;;22.09;33.99
55990;BME280;41875;55.806;38.082;2023-06-14T05:07:26;99778.13;;;22.14;33.33
55990;BME280;41875;55.806;38.082;2023-06-14T05:09:55;99776.78;;;22.23;32.95
55990;BME280;41875;55.806;38.082;2023-06-14T05:12:23;99779.69;;;21.91;33.42
55990;BME280;41875;55.806;38.082;2023-06-14T05:14:52;99783.97;;;22.41;32.72
55990;BME280;41875;55.806;38.082;2023-06-14T05:17:21;99784.53;;;22.01;32.92
55990;BME280;41875;55.806;38.082;2023-06-14T05:19:50;99788.06;;;22.01;33.53
55990;BME280;41875;55.806;38.082;2023-06-14T05:22:20;99778.50;;;22.48;32.78
55990;BME280;41875;55.806;38.082;2023-06-14T05:24:48;99771.84;;;22.62;33.09
55990;BME280;41875;55.806;38.082;2023-06-14T05:27:18;99773.50;;;22.63;32.95
55990;BME280;41875;55.806;38.082;2023-06-14T05:29:46;99776.34;;;22.38;33.50
55990;BME280;41875;55.806;38.082;2023-06-14T05:32:15;99776.41;;;22.62;32.58
55990;BME280;41875;55.806;38.082;2023-06-14T05:34:43;99775.72;;;22.55;33.16
55990;BME280;41875;55.806;38.082;2023-06-14T05:37:12;99772.59;;;23.05;32.49
55990;BME280;41875;55.806;38.082;2023-06-14T05:39:42;99777.03;;;22.99;32.33
55990;BME280;41875;55.806;38.082;2023-06-14T05:42:10;99766.47;;;22.98;32.71
55990;BME280;41875;55.806;38.082;2023-06-14T05:44:39;99768.91;;;23.59;32.27
55990;BME280;41875;55.806;38.082;2023-06-14T05:47:07;99767.44;;;23.27;32.11
55990;BME280;41875;55.806;38.082;2023-06-14T05:49:36;99777.41;;;23.39;30.06
55990;BME280;41875;55.806;38.082;2023-06-14T05:52:06;99786.66;;;23.19;30.36
55990;BME280;41875;55.806;38.082;2023-06-14T05:54:34;99780.44;;;23.31;30.79
55990;BME280;41875;55.806;38.082;2023-06-14T05:57:05;99783.47;;;24.11;29.68
55990;BME280;41875;55.806;38.082;2023-06-14T05:59:34;99796.00;;;23.23;28.12
55990;BME280;41875;55.806;38.082;2023-06-14T06:02:03;99788.13;;;23.74;28.85
55990;BME280;41875;55.806;38.082;2023-06-14T06:04:32;99799.84;;;23.92;28.43
55990;BME280;41875;55.806;38.082;2023-06-14T06:07:01;99792.31;;;23.94;28.46
55990;BME280;41875;55.806;38.082;2023-06-14T06:09:29;99799.16;;;24.26;28.47
55990;BME280;41875;55.806;38.082;2023-06-14T06:11:58;99795.06;;;24.40;28.54
55990;BME280;41875;55.806;38.082;2023-06-14T06:14:27;99801.41;;;24.17;28.15
55990;BME280;41875;55.806;38.082;2023-06-14T06:16:57;99804.13;;;24.17;27.10
55990;BME280;41875;55.806;38.082;2023-06-14T06:19:26;99795.88;;;24.70;25.78
55990;BME280;41875;55.806;38.082;2023-06-14T06:21:54;99804.31;;;24.56;26.17
55990;BME280;41875;55.806;38.082;2023-06-14T06:24:23;99781.38;;;24.01;28.14
55990;BME280;41875;55.806;38.082;2023-06-14T06:26:52;99781.78;;;24.39;26.54
55990;BME280;41875;55.806;38.082;2023-06-14T06:29:21;99773.94;;;24.71;26.41
55990;BME280;41875;55.806;38.082;2023-06-14T06:31:51;99800.91;;;24.66;27.18
55990;BME280;41875;55.806;38.082;2023-06-14T06:34:21;99794.66;;;23.90;28.11
55990;BME280;41875;55.806;38.082;2023-06-14T06:36:52;99799.63;;;24.23;26.88
55990;BME280;41875;55.806;38.082;2023-06-14T06:39:21;99792.19;;;24.01;26.58
55990;BME280;41875;55.806;38.082;2023-06-14T06:41:49;99790.81;;;24.44;26.73
55990;BME280;41875;55.806;38.082;2023-06-14T06:44:27;99792.81;;;24.20;25.21
55990;BME280;41875;55.806;38.082;2023-06-14T06:46:57;99771.16;;;24.83;25.49
55990;BME280;41875;55.806;38.082;2023-06-14T06:49:26;99788.53;;;24.53;25.11
55990;BME280;41875;55.806;38.082;2023-06-14T06:54:50;99775.63;;;23.97;25.71
55990;BME280;41875;55.806;38.082;2023-06-14T06:57:40;99793.44;;;23.69;25.68
55990;BME280;41875;55.806;38.082;2023-06-14T07:00:10;99758.59;;;24.60;24.26
55990;BME280;41875;55.806;38.082;2023-06-14T07:02:41;99783.78;;;23.73;25.70
55990;BME280;41875;55.806;38.082;2023-06-14T07:05:10;99770.31;;;23.90;25.76
55990;BME280;41875;55.806;38.082;2023-06-14T07:07:39;99775.34;;;24.11;26.25
55990;BME280;41875;55.806;38.082;2023-06-14T07:10:09;99780.03;;;23.63;26.74
55990;BME280;41875;55.806;38.082;2023-06-14T07:12:38;99762.50;;;24.52;25.29
55990;BME280;41875;55.806;38.082;2023-06-14T07:15:10;99774.69;;;24.20;25.89
55990;BME280;41875;55.806;38.082;2023-06-14T07:17:42;99763.63;;;23.40;26.91
55990;BME280;41875;55.806;38.082;2023-06-14T07:20:11;99760.88;;;24.05;26.70
55990;BME280;41875;55.806;38.082;2023-06-14T07:22:42;99765.75;;;23.91;26.75
55990;BME280;41875;55.806;38.082;2023-06-14T07:25:12;99785.16;;;23.88;26.10
55990;BME280;41875;55.806;38.082;2023-06-14T07:27:45;99776.44;;;23.98;26.13
55990;BME280;41875;55.806;38.082;2023-06-14T07:30:14;99763.75;;;24.61;25.37
55990;BME280;41875;55.806;38.082;2023-06-14T07:32:44;99776.38;;;24.56;25.37
55990;BME280;41875;55.806;38.082;2023-06-14T07:35:13;99772.41;;;24.29;25.47
55990;BME280;41875;55.806;38.082;2023-06-14T07:37:42;99766.16;;;24.75;24.97
55990;BME280;41875;55.806;38.082;2023-06-14T07:40:11;99761.66;;;24.80;25.07
55990;BME280;41875;55.806;38.082;2023-06-14T07:42:40;99762.94;;;23.86;26.29
55990;BME280;41875;55.806;38.082;2023-06-14T07:45:09;99778.09;;;23.99;25.76
55990;BME280;41875;55.806;38.082;2023-06-14T07:47:38;99763.09;;;24.08;25.28
55990;BME280;41875;55.806;38.082;2023-06-14T07:50:08;99764.25;;;24.12;25.79
55990;BME280;41875;55.806;38.082;2023-06-14T07:52:38;99755.25;;;23.54;25.78
55990;BME280;41875;55.806;38.082;2023-06-14T07:55:07;99778.66;;;23.60;26.02
55990;BME280;41875;55.806;38.082;2023-06-14T07:57:36;99775.09;;;24.12;24.89
55990;BME280;41875;55.806;38.082;2023-06-14T08:00:05;99758.38;;;24.32;25.52
55990;BME280;41875;55.806;38.082;2023-06-14T08:02:37;99763.31;;;24.18;25.27
55990;BME280;41875;55.806;38.082;2023-06-14T08:05:08;99763.88;;;25.23;24.84
55990;BME280;41875;55.806;38.082;2023-06-14T08:07:38;99755.03;;;25.10;24.40
55990;BME280;41875;55.806;38.082;2023-06-14T08:10:07;99746.97;;;25.16;25.09
55990;BME280;41875;55.806;38.082;2023-06-14T08:12:36;99755.50;;;24.22;25.75
55990;BME280;41875;55.806;38.082;2023-06-14T08:15:06;99753.47;;;24.63;24.97
55990;BME280;41875;55.806;38.082;2023-06-14T08:17:42;99745.19;;;25.44;24.47
55990;BME280;41875;55.806;38.082;2023-06-14T08:20:13;99754.28;;;25.54;24.83
55990;BME280;41875;55.806;38.082;2023-06-14T08:22:44;99773.78;;;24.78;25.08
55990;BME280;41875;55.806;38.082;2023-06-14T08:25:15;99763.56;;;24.05;25.90
55990;BME280;41875;55.806;38.082;2023-06-14T08:27:45;99756.84;;;24.54;24.52
55990;BME280;41875;55.806;38.082;2023-06-14T08:30:14;99763.03;;;24.20;24.53
55990;BME280;41875;55.806;38.082;2023-06-14T08:32:45;99766.81;;;24.82;24.12
55990;BME280;41875;55.806;38.082;2023-06-14T08:35:37;99756.13;;;25.32;24.36
55990;BME280;41875;55.806;38.082;2023-06-14T08:38:07;99755.53;;;25.07;25.14
55990;BME280;41875;55.806;38.082;2023-06-14T08:40:37;99765.09;;;24.76;24.71
55990;BME280;41875;55.806;38.082;2023-06-14T08:43:06;99748.16;;;25.64;23.33
55990;BME280;41875;55.806;38.082;2023-06-14T08:45:35;99753.13;;;25.11;24.24
55990;BME280;41875;55.806;38.082;2023-06-14T08:48:08;99748.88;;;24.98;24.41
55990;BME280;41875;55.806;38.082;2023-06-14T08:50:40;99734.16;;;25.11;24.86
55990;BME280;41875;55.806;38.082;2023-06-14T08:53:11;99730.38;;;25.12;24.40
55990;BME280;41875;55.806;38.082;2023-06-14T08:55:46;99733.19;;;25.39;23.94
55990;BME280;41875;55.806;38.082;2023-06-14T08:58:16;99731.34;;;25.23;23.52
55990;BME280;41875;55.806;38.082;2023-06-14T09:00:44;99730.25;;;25.91;22.63
55990;BME280;41875;55.806;38.082;2023-06-14T09:03:13;99712.53;;;25.83;23.03
55990;BME280;41875;55.806;38.082;2023-06-14T09:05:44;99715.09;;;26.22;22.25
55990;BME280;41875;55.806;38.082;2023-06-14T09:08:13;99724.22;;;25.83;23.40
55990;BME280;41875;55.806;38.082;2023-06-14T09:10:44;99720.91;;;25.54;24.12
55990;BME280;41875;55.806;38.082;2023-06-14T09:13:13;99719.69;;;25.45;23.09
55990;BME280;41875;55.806;38.082;2023-06-14T09:15:44;99712.56;;;25.16;24.19
55990;BME280;41875;55.806;38.082;2023-06-14T09:18:13;99698.63;;;26.01;23.21
55990;BME280;41875;55.806;38.082;2023-06-14T09:20:43;99707.47;;;25.92;23.68
55990;BME280;41875;55.806;38.082;2023-06-14T09:23:20;99710.16;;;26.14;23.09
55990;BME280;41875;55.806;38.082;2023-06-14T09:25:50;99718.41;;;25.08;23.86
55990;BME280;41875;55.806;38.082;2023-06-14T09:28:36;99711.19;;;24.96;24.28
55990;BME280;41875;55.806;38.082;2023-06-14T09:31:05;99721.88;;;25.25;23.81
55990;BME280;41875;55.806;38.082;2023-06-14T09:33:36;99713.16;;;25.01;23.39
55990;BME280;41875;55.806;38.082;2023-06-14T09:36:10;99712.31;;;25.62;23.73
55990;BME280;41875;55.806;38.082;2023-06-14T09:38:41;99700.38;;;26.13;22.91
55990;BME280;41875;55.806;38.082;2023-06-14T09:41:16;99697.13;;;25.89;22.95
55990;BME280;41875;55.806;38.082;2023-06-14T09:43:46;99709.06;;;24.99;24.09
55990;BME280;41875;55.806;38.082;2023-06-14T09:46:15;99705.16;;;25.11;24.68
55990;BME280;41875;55.806;38.082;2023-06-14T09:48:44;99712.91;;;25.92;23.32
55990;BME280;41875;55.806;38.082;2023-06-14T09:51:15;99699.56;;;26.50;22.26
55990;BME280;41875;55.806;38.082;2023-06-14T09:53:46;99701.66;;;25.55;23.69
55990;BME280;41875;55.806;38.082;2023-06-14T09:56:22;99684.47;;;26.27;22.59
55990;BME280;41875;55.806;38.082;2023-06-14T09:58:55;99690.00;;;26.10;22.70
55990;BME280;41875;55.806;38.082;2023-06-14T10:01:35;99682.47;;;26.17;22.86
55990;BME280;41875;55.806;38.082;2023-06-14T10:04:10;99677.44;;;26.31;23.59
55990;BME280;41875;55.806;38.082;2023-06-14T10:06:43;99692.09;;;25.48;24.01
55990;BME280;41875;55.806;38.082;2023-06-14T10:09:12;99677.31;;;25.88;23.31
55990;BME280;41875;55.806;38.082;2023-06-14T10:11:42;99675.56;;;26.04;23.09
55990;BME280;41875;55.806;38.082;2023-06-14T10:14:13;99682.94;;;26.09;22.88
55990;BME280;41875;55.806;38.082;2023-06-14T10:16:47;99689.56;;;25.91;23.77
55990;BME280;41875;55.806;38.082;2023-06-14T10:19:21;99685.66;;;25.81;22.93
55990;BME280;41875;55.806;38.082;2023-06-14T10:21:58;99672.09;;;25.81;23.78
55990;BME280;41875;55.806;38.082;2023-06-14T10:24:32;99669.22;;;26.63;22.74
55990;BME280;41875;55.806;38.082;2023-06-14T10:27:02;99667.72;;;26.40;23.11
55990;BME280;41875;55.806;38.082;2023-06-14T10:29:31;99653.72;;;26.16;23.00
55990;BME280;41875;55.806;38.082;2023-06-14T10:32:02;99659.91;;;26.49;22.42
55990;BME280;41875;55.806;38.082;2023-06-14T10:34:38;99662.56;;;26.06;23.29
55990;BME280;41875;55.806;38.082;2023-06-14T10:37:13;99655.31;;;26.50;23.34
55990;BME280;41875;55.806;38.082;2023-06-14T10:39:44;99643.31;;;25.80;23.81
55990;BME280;41875;55.806;38.082;2023-06-14T10:42:14;99677.88;;;25.63;24.29
55990;BME280;41875;55.806;38.082;2023-06-14T10:44:46;99675.59;;;25.32;24.65
55990;BME280;41875;55.806;38.082;2023-06-14T10:47:27;99663.94;;;25.81;23.80
55990;BME280;41875;55.806;38.082;2023-06-14T10:49:58;99649.56;;;25.81;23.04
55990;BME280;41875;55.806;38.082;2023-06-14T10:52:35;99642.41;;;26.29;22.50
55990;BME280;41875;55.806;38.082;2023-06-14T10:55:09;99641.41;;;27.52;21.21
55990;BME280;41875;55.806;38.082;2023-06-14T10:57:42;99640.66;;;28.04;20.86
55990;BME280;41875;55.806;38.082;2023-06-14T11:00:20;99630.81;;;27.92;21.36
55990;BME280;41875;55.806;38.082;2023-06-14T11:03:17;99640.88;;;26.44;22.79
55990;BME280;41875;55.806;38.082;2023-06-14T11:05:51;99630.28;;;27.69;21.52
55990;BME280;41875;55.806;38.082;2023-06-14T11:11:22;99648.84;;;25.91;23.43
55990;BME280;41875;55.806;38.082;2023-06-14T11:13:51;99641.28;;;25.65;23.59
55990;BME280;41875;55.806;38.082;2023-06-14T11:16:21;99639.91;;;27.19;22.45
55990;BME280;41875;55.806;38.082;2023-06-14T11:18:54;99636.13;;;25.96;22.61
55990;BME280;41875;55.806;38.082;2023-06-14T11:21:24;99627.50;;;26.05;22.46
55990;BME280;41875;55.806;38.082;2023-06-14T11:23:58;99633.16;;;25.65;23.03
55990;BME280;41875;55.806;38.082;2023-06-14T11:26:30;99628.50;;;25.38;23.41
55990;BME280;41875;55.806;38.082;2023-06-14T11:29:01;99617.66;;;26.26;22.16
55990;BME280;41875;55.806;38.082;2023-06-14T11:31:30;99625.78;;;26.26;22.72
55990;BME280;41875;55.806;38.082;2023-06-14T11:33:59;99623.91;;;26.26;22.85
55990;BME280;41875;55.806;38.082;2023-06-14T11:36:29;99614.47;;;26.82;22.20
55990;BME280;41875;55.806;38.082;2023-06-14T11:38:59;99625.47;;;26.17;22.97
55990;BME280;41875;55.806;38.082;2023-06-14T11:41:41;99614.28;;;25.81;23.40
55990;BME280;41875;55.806;38.082;2023-06-14T11:44:10;99620.56;;;26.14;22.72
55990;BME280;41875;55.806;38.082;2023-06-14T11:46:42;99622.22;;;25.60;23.88
55990;BME280;41875;55.806;38.082;2023-06-14T11:49:11;99607.66;;;25.66;23.38
55990;BME280;41875;55.806;38.082;2023-06-14T11:51:42;99608.94;;;25.91;23.80
55990;BME280;41875;55.806;38.082;2023-06-14T11:54:12;99599.16;;;25.85;22.61
55990;BME280;41875;55.806;38.082;2023-06-14T11:56:42;99606.78;;;25.93;22.41
55990;BME280;41875;55.806;38.082;2023-06-14T11:59:13;99606.84;;;25.98;22.44
55990;BME280;41875;55.806;38.082;2023-06-14T12:01:43;99613.00;;;25.89;21.77
55990;BME280;41875;55.806;38.082;2023-06-14T12:04:12;99608.66;;;27.16;20.63
55990;BME280;41875;55.806;38.082;2023-06-14T12:06:41;99605.00;;;26.90;21.36
55990;BME280;41875;55.806;38.082;2023-06-14T12:09:29;99605.91;;;27.06;21.39
55990;BME280;41875;55.806;38.082;2023-06-14T12:12:01;99600.97;;;27.08;21.48
55990;BME280;41875;55.806;38.082;2023-06-14T12:14:31;99604.19;;;26.95;21.82
55990;BME280;41875;55.806;38.082;2023-06-14T12:17:07;99592.63;;;26.67;23.05
55990;BME280;41875;55.806;38.082;2023-06-14T12:19:41;99603.66;;;26.07;24.08
55990;BME280;41875;55.806;38.082;2023-06-14T12:22:11;99587.88;;;26.36;22.87
55990;BME280;41875;55.806;38.082;2023-06-14T12:24:43;99583.38;;;26.62;22.59
55990;BME280;41875;55.806;38.082;2023-06-14T12:27:13;99585.63;;;26.23;23.60
55990;BME280;41875;55.806;38.082;2023-06-14T12:29:43;99574.66;;;26.12;23.44
55990;BME280;41875;55.806;38.082;2023-06-14T12:32:11;99564.03;;;26.48;23.13
55990;BME280;41875;55.806;38.082;2023-06-14T12:34:40;99571.63;;;26.09;23.90
55990;BME280;41875;55.806;38.082;2023-06-14T12:37:09;99567.88;;;26.58;23.08
55990;BME280;41875;55.806;38.082;2023-06-14T12:39:37;99561.63;;;26.57;23.42
55990;BME280;41875;55.806;38.082;2023-06-14T12:42:07;99576.97;;;25.61;23.83
55990;BME280;41875;55.806;38.082;2023-06-14T12:44:37;99563.81;;;26.12;23.02
55990;BME280;41875;55.806;38.082;2023-06-14T12:47:08;99575.00;;;26.69;22.43
55990;BME280;41875;55.806;38.082;2023-06-14T12:49:36;99592.31;;;27.06;22.27
55990;BME280;41875;55.806;38.082;2023-06-14T12:52:05;99574.09;;;25.78;24.03
55990;BME280;41875;55.806;38.082;2023-06-14T12:54:34;99562.81;;;26.29;23.83
55990;BME280;41875;55.806;38.082;2023-06-14T12:57:07;99563.81;;;26.60;23.30
55990;BME280;41875;55.806;38.082;2023-06-14T12:59:38;99565.13;;;26.47;23.17
55990;BME280;41875;55.806;38.082;2023-06-14T13:02:12;99563.50;;;27.15;22.51
55990;BME280;41875;55.806;38.082;2023-06-14T13:04:41;99543.66;;;27.30;22.27
55990;BME280;41875;55.806;38.082;2023-06-14T13:07:09;99568.34;;;27.08;22.77
55990;BME280;41875;55.806;38.082;2023-06-14T13:09:38;99548.69;;;26.75;22.39
55990;BME280;41875;55.806;38.082;2023-06-14T13:12:07;99556.72;;;27.23;22.98
55990;BME280;41875;55.806;38.082;2023-06-14T13:14:39;99549.63;;;26.10;23.54